Meteo Giornale » Osservazioni meteo Stati Uniti (USA) » Madera
ore: 12:55 - Osservazioni Meteo Madera
Lat. 36° 59' N Lon. 120° 6' W Alt. 77 metri s.l.m.
29 °C
Sereno
Temp. 24 Ore
0 °C
33 °C
Nord/NOvest
13 Km/h
Dew point 11 °C
Umidità 32 %
Visibilità 10 Km
Il sole sorge alle ore 06:30
Il sole tramonta alle ore 19:30
| Data e Ora | Cielo e Fenomeni | T °C | DP °C | Um. % | Pres. hPa | Vis. km | Vento km/h | |
|---|---|---|---|---|---|---|---|---|
| Oggi h: 12:55 | Sereno | 29 | 11 | 32 | 1012 | 10 | N/NO 13 | |
| Oggi h: 11:55 | Sereno | 0 | 0 | 46 | 1012 | 10 | O 13 | |
| Oggi h: 10:55 | Sereno | 24 | 11 | 43 | 1012 | 10 | O/NO 13 | |
| Oggi h: 09:55 | Sereno | 23 | 11 | 46 | 1012 | 10 | O/NO 13 | |
| Oggi h: 08:55 | Sereno | 19 | 11 | 59 | 1012 | 10 | NO 13 | |
| Oggi h: 07:55 | Sereno | 17 | 11 | 67 | 1012 | 10 | O/NO 11.1 | |
| Oggi h: 07:10 | Foschia | 14 | 11 | 82 | 1011 | 5 | O/SO 7.4 | |
| Oggi h: 07:01 | Foschia | 14 | 11 | 82 | 1011 | 3 | N 5.5 | |
| Oggi h: 06:55 | Foschia | 14 | 11 | 82 | 1011 | 5 | O/SO 7.4 | |
| Oggi h: 05:55 | Sereno | 14 | 11 | 82 | 1010 | 10 | N 0 | |
| Oggi h: 04:55 | Sereno | 15 | 11 | 76 | 1010 | 10 | O/NO 7.4 | |
| Oggi h: 03:55 | Sereno | 16 | 11 | 72 | 1010 | 10 | NO 7.4 | |
| Oggi h: 02:55 | Sereno | 16 | 11 | 72 | 1010 | 10 | NO 7.4 | |
| Oggi h: 01:55 | Sereno | 17 | 11 | 67 | 0 | 10 | N 5.5 | |
| Oggi h: 00:55 | Sereno | 18 | 11 | 63 | 1010 | 10 | O/NO 11.1 | |
| Ieri h: 23:55 | Sereno | 18 | 9 | 55 | 1010 | 10 | O/NO 9.3 | |
| Ieri h: 22:55 | Sereno | 19 | 9 | 52 | 1010 | 10 | NO 9.3 | |
| Ieri h: 21:55 | Sereno | 21 | 9 | 46 | 1010 | 10 | O/NO 11.1 | |
| Ieri h: 20:55 | Sereno | 23 | 9 | 40 | 1010 | 10 | N 5.5 | |
| Ieri h: 19:55 | Sereno | 26 | 8 | 31 | 1009 | 10 | NO 11.1 | |
| Ieri h: 18:55 | Sereno | 30 | 7 | 23 | 1009 | 10 | NO 13 | |
| Ieri h: 17:55 | Sereno | 33 | 8 | 21 | 1009 | 10 | NO 13 | |
| Ieri h: 16:55 | Sereno | 33 | 8 | 21 | 1009 | 10 | O/NO 11.1 | |
| Ieri h: 15:55 | Sereno | 33 | 8 | 21 | 1010 | 10 | NO 13 | |
| Ieri h: 14:55 | Sereno | 32 | 8 | 22 | 1011 | 10 | NO 7.4 | |
| Ieri h: 13:55 | Sereno | 31 | 10 | 27 | 1011 | 10 | N/NO 13 | |



